Shorewood, Illinois
Current Conditions -  °F | °C
As of 2:55 AM on Monday 20 Oct 2014 (Local Time) from KJOT Reporting Station
Clear Clear  
Wind Chill: 46°   Ceiling: Unl
Heat Index: 48°   Visibility: 10mi
Dew Point: 44°   Wind: 6mph
Humidity: 84%   Direction: 190°S
Pressure: 29.87"   Gusts: NA
Location:  41.5°N, 88.22°W
Report Text: KJOT 200755Z AUTO 19005KT 10SM CLR 09/07 A2987 RMK AO2 T00900065
Loading
Personal Weather Stations






























Interactive Weather Map
Tropical Storm Tracking
New forecast layout! Learn more

10-Day Weather Forecast

Advertisements
Track Severe Weather on mobile